Ana Sayfa
METAR-TAF:

METAR-TAF

Havaalanları :

Sunlight Mountain, Colorado, Amerika Birleşik Devletleri

Enlem: 39-25-32N, Boylam: 107-22-45W, yükseklik: 3232 m

Güncel hava durumu gözlemi

Rapor saat 01:42 UTC de 23 dakika önce yapıldı.
Rüzgar güney/güneybatıdan 10 kt ve 15 kt'a kadar ani rüzgarlar
Sıcaklık 0°C
Nem 64%
Basınç 1025 hPa
Görüş mesafesi: 16.1 km
Açık gökyüzü

METAR: K5SM 190142Z AUTO 20010G15KT 10SM CLR 00/M06 A3028 RMK AO2

Saat: 19:05 (02:05 UTC)


TAF: eksik

4.000'den fazla havaalanı için hava durumu gözlemleri ve tahminleri (METAR ve TAF raporları).

Kullanılabilir istasyonlar harita üzerinde sarı ve kırmızı noktalarla gösterilir.

İstasyonun adını görmek için fareyi noktanın üzerinde gezdirin.

Sonrasında hava gözlem ve tahminlerini görmek için tıklayın.

Haritayı değiştirmek için: yaklaştırmak için siyah artı işaretli yeşil düğmeye ve uzaklaştırmak için de eksi işaretli düğmeye hızla tıklayın; bitişik haritalar için yeşil okları kullanın.


METAR-TAF: